Time;durP1;ratioP1;P1;durP2;ratioP2;P2;SDS_P1;SDS_P2;PMS_P1;PMS_P2;Temp;Humidity;BMP_temperature;BMP_pressure;BME280_temperature;BME280_humidity;BME280_pressure;Samples;Min_cycle;Max_cycle;Signal;HPM_P1;HPM_P2
2023/03/28 00:02:02;;;;;;;;;;;;;;;7.86;100.00;98071.63;5094379;28;1940;-69
2023/03/28 00:04:30;;;;;;;;;;;;;;;7.85;100.00;98075.59;5094360;28;835;-69
2023/03/28 00:06:56;;;;;;;;;;;;;;;7.87;100.00;98077.91;5094364;28;836;-69
2023/03/28 00:09:24;;;;;;;;;;;;;;;7.81;100.00;98088.66;5094613;28;1006;-69
2023/03/28 00:11:51;;;;;;;;;;;;;;;7.81;100.00;98085.91;5094396;28;815;-68
2023/03/28 00:14:18;;;;;;;;;;;;;;;7.84;100.00;98087.03;5094461;28;954;-68
2023/03/28 00:16:44;;;;;;;;;;;;;;;7.92;100.00;98083.69;5094188;28;827;-68
2023/03/28 00:19:13;;;;;;;;;;;;;;;7.94;100.00;98089.53;5093975;28;1293;-70
2023/03/28 00:21:45;;;;;;;;;;;;;;;7.87;100.00;98091.66;5094044;28;1167;-69
2023/03/28 00:24:14;;;;;;;;;;;;;;;7.91;100.00;98092.34;5075849;28;1901;-67
2023/03/28 00:26:42;;;;;;;;;;;;;;;7.92;100.00;98091.94;5094217;28;890;-69
2023/03/28 00:29:14;;;;;;;;;;;;;;;8.08;100.00;98101.44;5093966;28;820;-69
2023/03/28 00:31:41;;;;;;;;;;;;;;;8.13;100.00;98087.19;5093937;28;899;-70
2023/03/28 00:34:07;;;;;;;;;;;;;;;8.11;100.00;98093.09;5092618;28;824;-68
2023/03/28 00:36:34;;;;;;;;;;;;;;;8.14;100.00;98106.00;5093799;28;847;-71
2023/03/28 00:39:04;;;;;;;;;;;;;;;8.22;100.00;98106.63;5093645;28;851;-70
2023/03/28 00:41:32;;;;;;;;;;;;;;;8.15;100.00;98102.06;5093758;28;866;-70
2023/03/28 00:43:58;;;;;;;;;;;;;;;8.23;100.00;98110.13;5075513;28;1947;-69
2023/03/28 00:46:36;;;;;;;;;;;;;;;8.38;100.00;98114.13;5093565;28;843;-69
2023/03/28 00:49:22;;;;;;;;;;;;;;;8.48;100.00;98107.63;5093588;28;875;-69
2023/03/28 00:51:58;;;;;;;;;;;;;;;8.53;100.00;98107.09;5093449;28;930;-69
2023/03/28 00:54:26;;;;;;;;;;;;;;;8.53;100.00;98109.06;5093344;28;915;-70
2023/03/28 00:56:55;;;;;;;;;;;;;;;8.47;100.00;98110.78;5093414;28;918;-69
2023/03/28 00:59:25;;;;;;;;;;;;;;;8.39;100.00;98110.94;5093303;28;883;-69
2023/03/28 01:01:54;;;;;;;;;;;;;;;8.34;100.00;98114.22;5093176;28;1885;-67
2023/03/28 01:04:23;;;;;;;;;;;;;;;8.48;100.00;98102.09;5093247;28;902;-69
2023/03/28 01:06:53;;;;;;;;;;;;;;;8.43;100.00;98112.84;5093355;28;839;-69
2023/03/28 01:09:20;;;;;;;;;;;;;;;8.38;100.00;98106.66;5093326;28;896;-68
2023/03/28 01:11:47;;;;;;;;;;;;;;;8.45;100.00;98097.47;5093317;28;803;-68
2023/03/28 01:14:18;;;;;;;;;;;;;;;8.61;100.00;98099.44;5093102;28;819;-69
2023/03/28 01:16:46;;;;;;;;;;;;;;;8.58;100.00;98105.81;5092955;28;839;-69
2023/03/28 01:19:31;;;;;;;;;;;;;;;8.57;100.00;98115.28;5092833;28;1282;-70
2023/03/28 01:22:29;;;;;;;;;;;;;;;8.38;100.00;98119.63;5093056;28;1906;-68
2023/03/28 01:24:56;;;;;;;;;;;;;;;8.41;100.00;98118.00;5092978;28;905;-69
2023/03/28 01:27:36;;;;;;;;;;;;;;;8.36;100.00;98106.31;5074564;28;1321;-69
2023/03/28 01:30:35;;;;;;;;;;;;;;;8.21;100.00;98115.28;5092805;28;894;-71
2023/03/28 01:33:22;;;;;;;;;;;;;;;7.99;100.00;98113.00;5048331;28;1254;-70
2023/03/28 01:36:01;;;;;;;;;;;;;;;8.01;100.00;98118.88;5092541;28;906;-69
2023/03/28 01:38:27;;;;;;;;;;;;;;;8.00;100.00;98111.03;5074410;28;1450;-70
2023/03/28 01:41:11;;;;;;;;;;;;;;;8.02;100.00;98108.63;5092597;28;859;-70
2023/03/28 01:43:43;;;;;;;;;;;;;;;8.15;100.00;98104.81;5092464;28;1945;-70
2023/03/28 01:46:18;;;;;;;;;;;;;;;8.30;100.00;98109.97;5092136;28;878;-69
2023/03/28 01:48:54;;;;;;;;;;;;;;;8.53;100.00;98109.06;5092342;28;820;-69
2023/03/28 01:51:20;;;;;;;;;;;;;;;8.54;100.00;98114.16;5092830;28;797;-71
2023/03/28 01:53:52;;;;;;;;;;;;;;;8.44;100.00;98117.94;5092453;28;874;-70
2023/03/28 01:56:29;;;;;;;;;;;;;;;8.38;100.00;98128.69;5092319;28;867;-70
2023/03/28 01:59:02;;;;;;;;;;;;;;;8.26;100.00;98129.34;5092277;28;847;-71
2023/03/28 02:01:35;;;;;;;;;;;;;;;8.10;100.00;98127.31;5092185;28;859;-70
2023/03/28 02:04:06;;;;;;;;;;;;;;;7.89;100.00;98138.78;5092066;28;1910;-70
2023/03/28 02:06:34;;;;;;;;;;;;;;;7.65;100.00;98151.84;5073892;28;1377;-72
2023/03/28 02:09:01;;;;;;;;;;;;;;;7.48;100.00;98157.25;5092306;28;991;-71
2023/03/28 02:11:30;;;;;;;;;;;;;;;7.25;100.00;98152.56;5092051;28;859;-72
2023/03/28 02:14:01;;;;;;;;;;;;;;;7.07;100.00;98149.38;5091856;28;827;-70
2023/03/28 02:16:30;;;;;;;;;;;;;;;6.88;100.00;98156.34;5091939;28;823;-71
2023/03/28 02:18:57;;;;;;;;;;;;;;;6.68;100.00;98164.53;5091652;28;1491;-71
2023/03/28 02:21:26;;;;;;;;;;;;;;;6.56;100.00;98167.84;5073715;28;892;-70
2023/03/28 02:23:55;;;;;;;;;;;;;;;6.50;100.00;98170.25;5091602;28;1902;-70
2023/03/28 02:26:23;;;;;;;;;;;;;;;6.64;100.00;98185.75;5092604;28;756;-71
2023/03/28 02:28:51;;;;;;;;;;;;;;;6.56;100.00;98176.84;5092003;28;863;-70
2023/03/28 02:31:20;;;;;;;;;;;;;;;6.63;100.00;98184.97;5091754;28;907;-70
2023/03/28 02:33:47;;;;;;;;;;;;;;;6.97;100.00;98191.53;5091701;28;824;-71
2023/03/28 02:36:32;;;;;;;;;;;;;;;7.35;100.00;98190.06;5091760;28;832;-70
2023/03/28 02:39:02;;;;;;;;;;;;;;;7.64;100.00;98188.75;5091894;28;904;-69
2023/03/28 02:41:38;;;;;;;;;;;;;;;7.65;100.00;98191.09;5091602;28;883;-69
2023/03/28 02:44:32;;;;;;;;;;;;;;;7.70;100.00;98192.59;5073396;28;1928;-69
2023/03/28 02:47:05;;;;;;;;;;;;;;;7.73;100.00;98197.25;5073274;28;1371;-71
2023/03/28 02:49:36;;;;;;;;;;;;;;;7.80;100.00;98196.34;5091574;28;922;-71
2023/03/28 02:52:19;;;;;;;;;;;;;;;7.76;100.00;98204.66;5091445;28;895;-71
2023/03/28 02:54:52;;;;;;;;;;;;;;;7.70;100.00;98209.88;5091444;28;859;-70
2023/03/28 02:57:26;;;;;;;;;;;;;;;7.65;100.00;98217.84;5092519;28;910;-71
2023/03/28 02:59:57;;;;;;;;;;;;;;;7.54;100.00;98221.53;5095635;28;917;-71
2023/03/28 03:02:23;;;;;;;;;;;;;;;7.46;100.00;98222.88;5096160;28;1894;-70
2023/03/28 03:04:50;;;;;;;;;;;;;;;7.42;100.00;98219.41;5095552;28;886;-67
2023/03/28 03:07:17;;;;;;;;;;;;;;;7.35;100.00;98219.53;5095481;28;827;-71
2023/03/28 03:09:44;;;;;;;;;;;;;;;7.34;99.97;98227.00;5095822;28;1044;-68
2023/03/28 03:12:12;;;;;;;;;;;;;;;7.47;99.23;98240.94;5095370;28;826;-72
2023/03/28 03:14:37;;;;;;;;;;;;;;;7.39;97.59;98227.72;5095325;28;807;-70
2023/03/28 03:17:05;;;;;;;;;;;;;;;7.34;98.64;98227.00;5095007;28;1469;-69
2023/03/28 03:19:31;;;;;;;;;;;;;;;7.37;96.81;98233.63;5095320;28;891;-70
2023/03/28 03:21:58;;;;;;;;;;;;;;;7.39;95.36;98234.00;5095003;28;1910;-71
2023/03/28 03:24:24;;;;;;;;;;;;;;;7.38;94.49;98231.66;5095155;28;863;-71
2023/03/28 03:26:50;;;;;;;;;;;;;;;7.35;95.47;98239.53;5095404;28;870;-71
2023/03/28 03:29:20;;;;;;;;;;;;;;;7.14;96.93;98237.16;5095110;28;890;-71
2023/03/28 03:31:47;;;;;;;;;;;;;;;6.86;98.82;98235.63;5094961;28;902;-69
2023/03/28 03:34:13;;;;;;;;;;;;;;;6.88;97.03;98250.50;5076864;28;800;-70
2023/03/28 03:36:40;;;;;;;;;;;;;;;6.91;96.50;98259.88;5076773;28;1176;-74
2023/03/28 03:39:07;;;;;;;;;;;;;;;6.81;97.22;98258.84;5094794;28;820;-71
2023/03/28 03:41:33;;;;;;;;;;;;;;;6.72;97.89;98258.56;5094885;28;914;-72
2023/03/28 03:44:00;;;;;;;;;;;;;;;6.58;98.79;98254.06;5094736;28;1952;-70
2023/03/28 03:46:27;;;;;;;;;;;;;;;6.49;99.96;98265.56;5094761;28;811;-71
2023/03/28 03:48:53;;;;;;;;;;;;;;;6.45;100.00;98275.81;5094712;28;1010;-72
2023/03/28 03:51:20;;;;;;;;;;;;;;;6.45;100.00;98278.56;5094494;28;984;-71
2023/03/28 03:53:49;;;;;;;;;;;;;;;6.48;99.61;98294.19;5076468;28;1361;-69
2023/03/28 03:56:16;;;;;;;;;;;;;;;6.46;99.36;98293.03;5094578;28;933;-71
2023/03/28 03:58:42;;;;;;;;;;;;;;;6.54;98.99;98297.25;5094521;28;859;-71
2023/03/28 04:01:12;;;;;;;;;;;;;;;6.45;99.16;98302.47;5094481;28;839;-71
2023/03/28 04:03:41;;;;;;;;;;;;;;;6.28;99.36;98305.03;5094506;28;1889;-71
2023/03/28 04:06:07;;;;;;;;;;;;;;;6.31;98.19;98322.63;5076503;28;899;-71
2023/03/28 04:08:34;;;;;;;;;;;;;;;6.38;96.46;98321.75;5094819;28;922;-70
2023/03/28 04:11:00;;;;;;;;;;;;;;;6.41;95.90;98332.72;5094448;28;881;-70
2023/03/28 04:13:27;;;;;;;;;;;;;;;6.36;95.45;98329.63;5094944;28;863;-70
2023/03/28 04:15:53;;;;;;;;;;;;;;;6.33;96.07;98340.22;5094192;28;827;-70
2023/03/28 04:18:20;;;;;;;;;;;;;;;6.30;96.38;98349.28;5072519;28;1325;-73
2023/03/28 04:20:52;;;;;;;;;;;;;;;6.19;97.46;98353.31;5073729;28;816;-70
2023/03/28 04:23:19;;;;;;;;;;;;;;;6.15;96.43;98352.63;5073753;28;1973;-71
2023/03/28 04:25:48;;;;;;;;;;;;;;;6.23;94.84;98359.56;5073856;28;934;-70
2023/03/28 04:28:15;;;;;;;;;;;;;;;6.18;93.47;98373.72;5073722;28;879;-71
2023/03/28 04:30:42;;;;;;;;;;;;;;;6.26;92.76;98380.72;5055683;28;1499;-72
2023/03/28 04:33:09;;;;;;;;;;;;;;;6.27;91.64;98372.06;5073687;28;966;-72
2023/03/28 04:35:36;;;;;;;;;;;;;;;6.26;91.24;98378.72;5055591;28;1215;-73
2023/03/28 04:38:02;;;;;;;;;;;;;;;6.19;91.04;98380.75;5073585;28;840;-72
2023/03/28 04:40:29;;;;;;;;;;;;;;;6.23;92.42;98393.28;5073514;28;918;-73
2023/03/28 04:42:55;;;;;;;;;;;;;;;6.33;91.81;98397.84;5073320;28;1886;-72
2023/03/28 04:45:25;;;;;;;;;;;;;;;6.47;92.36;98398.91;5055458;28;1322;-73
2023/03/28 04:47:52;;;;;;;;;;;;;;;6.71;91.88;98386.84;5073401;28;907;-72
2023/03/28 04:50:19;;;;;;;;;;;;;;;6.89;90.30;98400.38;5073234;28;830;-70
2023/03/28 04:52:45;;;;;;;;;;;;;;;7.03;90.83;98404.13;5055266;28;1232;-72
2023/03/28 04:55:11;;;;;;;;;;;;;;;7.13;85.95;98420.47;5073193;28;906;-71
2023/03/28 04:57:37;;;;;;;;;;;;;;;7.32;85.48;98423.78;5055221;28;1379;-73
2023/03/28 05:00:15;;;;;;;;;;;;;;;7.36;84.33;98429.97;5073137;28;871;-71
2023/03/28 05:02:42;;;;;;;;;;;;;;;7.46;84.09;98433.78;5073013;28;1882;-73
2023/03/28 05:05:08;;;;;;;;;;;;;;;7.82;84.66;98431.25;5073002;28;871;-71
2023/03/28 05:07:35;;;;;;;;;;;;;;;8.32;82.07;98416.69;5072974;28;965;-71
2023/03/28 05:10:03;;;;;;;;;;;;;;;8.60;79.28;98433.91;5072786;28;915;-69
2023/03/28 05:12:30;;;;;;;;;;;;;;;8.43;77.97;98438.53;5072846;28;805;-67
2023/03/28 05:14:56;;;;;;;;;;;;;;;8.15;79.33;98453.53;5072813;28;835;-70
2023/03/28 05:17:23;;;;;;;;;;;;;;;7.68;77.85;98454.28;5072538;28;1233;-69
2023/03/28 05:19:50;;;;;;;;;;;;;;;7.54;80.41;98455.25;5071896;28;827;-71
2023/03/28 05:22:16;;;;;;;;;;;;;;;7.28;80.47;98453.28;5072551;28;1906;-68
2023/03/28 05:24:43;;;;;;;;;;;;;;;7.04;80.35;98457.88;5072664;28;832;-71
2023/03/28 05:27:11;;;;;;;;;;;;;;;7.04;81.52;98466.13;5072584;28;879;-71
2023/03/28 05:29:38;;;;;;;;;;;;;;;7.04;82.33;98457.88;5054556;28;1385;-72
2023/03/28 05:32:04;;;;;;;;;;;;;;;6.99;81.71;98464.59;5072432;28;831;-68
2023/03/28 05:34:38;;;;;;;;;;;;;;;6.92;82.95;98467.44;5072492;28;863;-70
2023/03/28 05:37:05;;;;;;;;;;;;;;;6.94;83.01;98467.81;5054386;28;1346;-70
2023/03/28 05:39:31;;;;;;;;;;;;;;;6.88;82.40;98469.44;5054392;28;1294;-71
2023/03/28 05:41:58;;;;;;;;;;;;;;;6.67;81.65;98465.75;5072335;28;844;-73
2023/03/28 05:44:25;;;;;;;;;;;;;;;6.59;82.98;98475.25;5072165;28;1926;-70
2023/03/28 05:46:51;;;;;;;;;;;;;;;6.49;81.90;98465.16;5072171;28;852;-72
2023/03/28 05:49:18;;;;;;;;;;;;;;;6.44;84.00;98473.81;5072025;28;858;-72
2023/03/28 05:51:44;;;;;;;;;;;;;;;6.30;82.88;98450.06;5072160;28;836;-66
2023/03/28 05:54:11;;;;;;;;;;;;;;;6.17;83.08;98449.78;5072003;28;887;-67
2023/03/28 05:56:38;;;;;;;;;;;;;;;6.24;83.99;98446.97;5071900;28;867;-68
2023/03/28 05:59:04;;;;;;;;;;;;;;;6.27;84.22;98445.38;5071952;28;820;-66
2023/03/28 06:01:31;;;;;;;;;;;;;;;6.27;83.49;98470.84;5072069;28;895;-69
2023/03/28 06:03:57;;;;;;;;;;;;;;;6.27;83.71;98465.38;5071736;28;1949;-68
2023/03/28 06:06:24;;;;;;;;;;;;;;;6.27;82.96;98457.13;5071779;28;887;-67
2023/03/28 06:08:50;;;;;;;;;;;;;;;6.39;83.20;98463.31;5071980;28;931;-67
2023/03/28 06:11:17;;;;;;;;;;;;;;;6.37;82.37;98468.41;5053823;28;1359;-70
2023/03/28 06:13:44;;;;;;;;;;;;;;;6.31;83.10;98490.00;5071624;28;891;-66
2023/03/28 06:16:10;;;;;;;;;;;;;;;6.30;82.35;98489.25;5071610;28;804;-68
2023/03/28 06:18:37;;;;;;;;;;;;;;;6.31;82.61;98493.53;5071355;28;1451;-68
2023/03/28 06:21:03;;;;;;;;;;;;;;;6.17;82.45;98499.16;5053748;28;1177;-67
2023/03/28 06:23:29;;;;;;;;;;;;;;;6.06;82.62;98495.69;5071436;28;1909;-67
2023/03/28 06:25:56;;;;;;;;;;;;;;;6.00;83.68;98491.84;5071755;28;898;-68
2023/03/28 06:28:22;;;;;;;;;;;;;;;5.98;84.38;98486.00;5071583;28;840;-66
2023/03/28 06:30:49;;;;;;;;;;;;;;;5.95;84.05;98490.28;5071483;28;860;-67
2023/03/28 06:33:15;;;;;;;;;;;;;;;5.96;84.04;98491.88;5070654;28;894;-68
2023/03/28 06:35:42;;;;;;;;;;;;;;;5.98;82.31;98495.00;5071467;28;824;-68
2023/03/28 06:38:09;;;;;;;;;;;;;;;5.95;85.09;98509.50;5071546;28;844;-67
2023/03/28 06:40:35;;;;;;;;;;;;;;;6.01;83.29;98501.63;5071420;28;885;-67
2023/03/28 06:43:02;;;;;;;;;;;;;;;6.06;84.00;98515.72;5071389;28;1886;-75
2023/03/28 06:45:27;;;;;;;;;;;;;;;6.05;81.82;98499.63;5071457;28;929;-76
2023/03/28 06:47:54;;;;;;;;;;;;;;;6.11;83.42;98517.22;5053190;28;1201;-68
2023/03/28 06:50:21;;;;;;;;;;;;;;;6.34;83.77;98522.16;5071369;28;906;-67
2023/03/28 06:52:47;;;;;;;;;;;;;;;6.56;83.95;98530.97;5071165;28;840;-68
2023/03/28 06:55:14;;;;;;;;;;;;;;;6.50;80.50;98518.88;5071333;28;845;-66
2023/03/28 06:57:40;;;;;;;;;;;;;;;6.47;80.43;98534.19;5071275;28;820;-66
2023/03/28 07:00:07;;;;;;;;;;;;;;;6.40;80.22;98528.78;5071286;28;899;-67
2023/03/28 07:02:34;;;;;;;;;;;;;;;6.49;81.22;98523.59;5071096;28;1890;-66
2023/03/28 07:05:05;;;;;;;;;;;;;;;6.71;79.20;98521.41;5071239;28;840;-73
2023/03/28 07:07:31;;;;;;;;;;;;;;;6.69;78.51;98542.22;5071301;28;807;-67
2023/03/28 07:09:58;;;;;;;;;;;;;;;6.72;79.30;98560.63;5071584;28;911;-66
2023/03/28 07:12:25;;;;;;;;;;;;;;;6.90;78.90;98554.97;5071161;28;832;-67
2023/03/28 07:14:51;;;;;;;;;;;;;;;7.14;78.41;98553.13;5071086;28;851;-66
2023/03/28 07:17:18;;;;;;;;;;;;;;;7.22;77.75;98559.34;5070738;28;1206;-66
2023/03/28 07:19:47;;;;;;;;;;;;;;;6.95;77.60;98562.75;5053020;28;1312;-67
2023/03/28 07:22:14;;;;;;;;;;;;;;;7.26;77.50;98560.09;5071044;28;1910;-67
2023/03/28 07:24:41;;;;;;;;;;;;;;;7.36;76.51;98554.47;5071297;28;832;-67
2023/03/28 07:27:08;;;;;;;;;;;;;;;7.42;76.77;98567.75;5071012;28;912;-67
2023/03/28 07:29:35;;;;;;;;;;;;;;;7.10;75.34;98566.91;5070993;28;862;-66
2023/03/28 07:32:00;;;;;;;;;;;;;;;7.03;76.04;98574.47;5070958;28;835;-66
2023/03/28 07:34:27;;;;;;;;;;;;;;;6.93;77.04;98576.13;5070826;28;808;-66
2023/03/28 07:37:23;;;;;;;;;;;;;;;6.82;75.92;98575.44;5071146;28;851;-66
2023/03/28 07:39:50;;;;;;;;;;;;;;;6.86;76.27;98584.44;5070824;28;1156;-67
2023/03/28 07:42:17;;;;;;;;;;;;;;;6.77;76.10;98584.13;5070669;28;2044;-68
2023/03/28 07:44:43;;;;;;;;;;;;;;;7.06;76.49;98579.94;5073930;28;836;-66
2023/03/28 07:47:10;;;;;;;;;;;;;;;7.23;75.62;98585.63;5074344;28;974;-65
2023/03/28 07:49:38;;;;;;;;;;;;;;;7.15;75.29;98590.44;5074422;28;840;-66
2023/03/28 07:52:04;;;;;;;;;;;;;;;7.30;74.91;98582.81;5074425;28;942;-66
2023/03/28 07:54:32;;;;;;;;;;;;;;;7.20;72.60;98587.22;5074322;28;863;-67
2023/03/28 07:56:59;;;;;;;;;;;;;;;7.20;73.00;98586.47;5074342;28;852;-66
2023/03/28 07:59:26;;;;;;;;;;;;;;;7.42;73.27;98607.00;5074259;28;839;-68
2023/03/28 08:01:52;;;;;;;;;;;;;;;7.51;72.54;98603.75;5074199;28;895;-67
2023/03/28 08:04:19;;;;;;;;;;;;;;;7.57;70.57;98597.41;5074009;28;1965;-66
2023/03/28 08:06:46;;;;;;;;;;;;;;;7.40;71.26;98611.34;5074082;28;836;-67
2023/03/28 08:09:14;;;;;;;;;;;;;;;7.45;71.64;98599.94;5074339;28;900;-65
2023/03/28 08:11:41;;;;;;;;;;;;;;;7.51;71.33;98606.50;5074049;28;907;-66
2023/03/28 08:14:10;;;;;;;;;;;;;;;7.69;71.06;98601.59;5073988;28;895;-67
2023/03/28 08:16:36;;;;;;;;;;;;;;;7.66;70.13;98613.41;5073869;28;832;-67
2023/03/28 08:19:02;;;;;;;;;;;;;;;7.46;70.12;98621.50;5073783;28;1284;-65
2023/03/28 08:21:30;;;;;;;;;;;;;;;7.43;69.98;98610.56;5073903;28;930;-66
2023/03/28 08:23:57;;;;;;;;;;;;;;;7.94;71.36;98622.50;5073769;28;1914;-64
2023/03/28 08:26:23;;;;;;;;;;;;;;;8.33;66.42;98632.19;5073782;28;899;-64
2023/03/28 08:28:53;;;;;;;;;;;;;;;8.76;65.50;98617.78;5073745;28;843;-66
2023/03/28 08:31:24;;;;;;;;;;;;;;;9.12;64.38;98617.94;5073870;28;887;-65
2023/03/28 08:33:51;;;;;;;;;;;;;;;8.92;64.48;98625.41;5074016;28;921;-65
2023/03/28 08:36:19;;;;;;;;;;;;;;;8.85;64.04;98611.72;5073789;28;867;-65
2023/03/28 08:38:48;;;;;;;;;;;;;;;9.01;62.84;98611.84;5073899;28;895;-65
2023/03/28 08:41:33;;;;;;;;;;;;;;;9.30;62.67;98616.81;5055482;28;1208;-66
2023/03/28 08:44:09;;;;;;;;;;;;;;;9.53;61.37;98602.19;5074152;28;1939;-65
2023/03/28 08:46:38;;;;;;;;;;;;;;;10.01;62.41;98600.81;5073476;28;852;-64
2023/03/28 08:49:06;;;;;;;;;;;;;;;10.41;59.97;98622.81;5073603;28;828;-64
2023/03/28 08:51:38;;;;;;;;;;;;;;;10.93;58.42;98626.72;5073379;28;851;-64
2023/03/28 09:06:28;;;;;;;;;;;;;;;10.44;56.71;98629.50;5073356;28;618;-66
2023/03/28 09:09:00;;;;;;;;;;;;;;;9.66;57.52;98643.72;5073098;28;937;-71
2023/03/28 09:11:33;;;;;;;;;;;;;;;9.93;60.14;98652.63;5073221;28;878;-65
2023/03/28 09:14:02;;;;;;;;;;;;;;;10.91;56.17;98663.09;5073012;28;819;-64
2023/03/28 09:16:29;;;;;;;;;;;;;;;10.89;54.49;98659.97;5072679;28;859;-65
2023/03/28 09:19:09;;;;;;;;;;;;;;;10.61;54.23;98655.91;5072581;28;1459;-64
2023/03/28 09:21:35;;;;;;;;;;;;;;;10.38;54.92;98671.41;5072703;28;836;-64
2023/03/28 09:24:10;;;;;;;;;;;;;;;10.40;54.89;98671.78;5072694;28;1910;-64
2023/03/28 09:26:40;;;;;;;;;;;;;;;9.81;56.00;98689.94;5072565;28;856;-66
2023/03/28 09:29:13;;;;;;;;;;;;;;;9.25;58.50;98689.00;5072731;28;911;-64
2023/03/28 09:31:44;;;;;;;;;;;;;;;9.25;56.08;98689.00;5072500;28;836;-72
2023/03/28 09:34:17;;;;;;;;;;;;;;;9.01;57.59;98707.53;5072736;28;851;-68
2023/03/28 09:36:44;;;;;;;;;;;;;;;9.16;59.28;98706.09;5057816;28;1451;-70
2023/03/28 10:10:23;;;;;;;;;;;;;;;9.41;56.50;98760.81;5266941;22;1489;-70
2023/03/28 10:12:58;;;;;;;;;;;;;;;9.58;56.32;98745.94;5092236;28;901;-69
2023/03/28 10:15:33;;;;;;;;;;;;;;;10.18;57.69;98770.84;5092186;28;1046;-70
2023/03/28 10:18:02;;;;;;;;;;;;;;;11.02;53.66;98792.78;5092022;28;1006;-71
2023/03/28 10:20:33;;;;;;;;;;;;;;;10.67;52.96;98778.56;5091990;28;855;-70
2023/03/28 10:23:11;;;;;;;;;;;;;;;10.45;54.17;98771.91;5074013;28;1969;-69
2023/03/28 10:25:49;;;;;;;;;;;;;;;10.75;53.12;98785.50;5091886;28;827;-68
2023/03/28 10:28:19;;;;;;;;;;;;;;;11.11;52.06;98795.72;5073771;28;910;-68
2023/03/28 10:30:56;;;;;;;;;;;;;;;10.75;50.97;98796.53;5091837;28;871;-69
2023/03/28 10:33:24;;;;;;;;;;;;;;;10.21;52.38;98786.53;5091819;28;870;-69
2023/03/28 10:36:10;;;;;;;;;;;;;;;10.20;52.62;98778.72;5092250;28;894;-74
2023/03/28 10:38:43;;;;;;;;;;;;;;;10.49;53.47;98803.00;5073477;28;1081;-69
2023/03/28 10:41:11;;;;;;;;;;;;;;;10.71;53.58;98795.03;5073550;28;1144;-68
2023/03/28 10:43:39;;;;;;;;;;;;;;;10.65;53.40;98799.50;5091606;28;1960;-71
2023/03/28 10:46:26;;;;;;;;;;;;;;;10.59;52.97;98813.84;5073545;28;1382;-72
2023/03/28 10:49:06;;;;;;;;;;;;;;;10.64;54.05;98815.31;5091159;28;2031;-70
2023/03/28 10:51:36;;;;;;;;;;;;;;;11.04;52.73;98812.50;5073502;28;1176;-68
2023/03/28 10:54:24;;;;;;;;;;;;;;;10.89;51.28;98791.91;5091785;28;886;-69
2023/03/28 10:56:53;;;;;;;;;;;;;;;10.36;51.78;98798.13;5091762;28;843;-75
2023/03/28 10:59:40;;;;;;;;;;;;;;;10.33;52.53;98809.25;5091864;28;808;-75
2023/03/28 11:02:06;;;;;;;;;;;;;;;10.48;51.74;98829.88;5073605;28;1259;-75
2023/03/28 11:04:52;;;;;;;;;;;;;;;10.58;53.29;98836.38;5073358;28;1886;-70
2023/03/28 11:07:34;;;;;;;;;;;;;;;10.87;52.10;98844.06;5091598;28;855;-72
2023/03/28 11:10:09;;;;;;;;;;;;;;;10.83;51.95;98857.97;5069789;28;1309;-71
2023/03/28 11:12:50;;;;;;;;;;;;;;;10.76;52.03;98860.88;5071357;28;847;-70
2023/03/28 11:15:28;;;;;;;;;;;;;;;11.08;51.35;98853.91;5071891;28;791;-73
2023/03/28 11:18:06;;;;;;;;;;;;;;;11.45;49.52;98844.34;5071391;28;894;-74
2023/03/28 11:20:39;;;;;;;;;;;;;;;11.18;52.33;98870.25;5075813;28;859;-73
2023/03/28 11:23:24;;;;;;;;;;;;;;;11.32;50.12;98858.06;5057042;28;1906;-71
2023/03/28 11:25:54;;;;;;;;;;;;;;;11.20;50.14;98870.59;5075024;28;886;-73
2023/03/28 11:28:39;;;;;;;;;;;;;;;11.15;50.64;98873.84;5074961;28;839;-71
2023/03/28 11:31:10;;;;;;;;;;;;;;;10.23;51.45;98888.31;5074900;28;918;-74
2023/03/28 11:33:41;;;;;;;;;;;;;;;10.21;52.82;98890.72;5074967;28;859;-74
2023/03/28 11:36:11;;;;;;;;;;;;;;;10.49;53.45;98894.19;5074729;28;855;-73
2023/03/28 11:39:02;;;;;;;;;;;;;;;9.87;52.57;98904.72;5074783;28;874;-72
2023/03/28 11:41:35;;;;;;;;;;;;;;;9.55;53.92;98909.53;5075250;28;788;-72
2023/03/28 11:44:20;;;;;;;;;;;;;;;9.52;54.37;98915.13;5074651;28;1972;-73
2023/03/28 11:46:47;;;;;;;;;;;;;;;9.62;53.71;98916.91;5073874;28;1777;-73
2023/03/28 11:49:14;;;;;;;;;;;;;;;9.76;53.89;98919.47;5073331;28;1088;-71
2023/03/28 11:51:41;;;;;;;;;;;;;;;9.26;54.12;98914.69;5075243;28;764;-74
2023/03/28 11:54:23;;;;;;;;;;;;;;;9.05;55.66;98915.75;5074564;28;858;-70
2023/03/28 12:09:48;;;;;;;;;;;;;;;10.15;53.21;98939.34;5074248;28;1211;-73
2023/03/28 12:12:23;;;;;;;;;;;;;;;9.93;52.08;98938.91;5074289;28;902;-72
2023/03/28 12:15:11;;;;;;;;;;;;;;;9.70;51.91;98943.19;5074209;28;867;-71
2023/03/28 12:17:43;;;;;;;;;;;;;;;9.20;52.80;98941.16;5074088;28;1152;-71
2023/03/28 12:20:14;;;;;;;;;;;;;;;9.26;54.51;98935.94;5074068;28;843;-69
2023/03/28 12:22:49;;;;;;;;;;;;;;;9.83;53.00;98951.69;5055880;28;1910;-70
2023/03/28 12:25:19;;;;;;;;;;;;;;;10.13;51.11;98956.31;5073967;28;839;-70
2023/03/28 12:27:45;;;;;;;;;;;;;;;9.52;51.31;98956.50;5074250;28;882;-71
2023/03/28 12:30:19;;;;;;;;;;;;;;;9.25;53.05;98951.72;5073996;28;839;-73
2023/03/28 12:32:55;;;;;;;;;;;;;;;9.00;52.71;98952.03;5073752;28;823;-74
2023/03/28 12:35:21;;;;;;;;;;;;;;;8.85;52.64;98958.91;5073772;28;914;-70
2023/03/28 12:38:07;;;;;;;;;;;;;;;9.50;53.12;98951.38;5073557;28;823;-68
2023/03/28 12:40:48;;;;;;;;;;;;;;;10.34;50.31;98966.25;5073609;28;882;-72
2023/03/28 12:43:26;;;;;;;;;;;;;;;11.01;47.85;98951.59;5073615;28;1950;-69
2023/03/28 12:45:56;;;;;;;;;;;;;;;10.98;47.19;98961.50;5073457;28;866;-74
2023/03/28 12:48:34;;;;;;;;;;;;;;;10.62;47.07;98964.19;5074174;28;777;-70
2023/03/28 12:51:26;;;;;;;;;;;;;;;10.61;48.21;98965.41;5073304;28;831;-71
2023/03/28 12:54:08;;;;;;;;;;;;;;;10.47;47.77;98971.94;5073445;28;823;-70
2023/03/28 12:56:35;;;;;;;;;;;;;;;11.46;46.98;98973.19;5073408;28;887;-74
2023/03/28 12:59:15;;;;;;;;;;;;;;;11.75;43.49;98978.84;5073261;28;855;-73
2023/03/28 13:01:52;;;;;;;;;;;;;;;12.52;43.13;98984.16;5073850;28;756;-73
2023/03/28 13:04:22;;;;;;;;;;;;;;;12.72;39.71;98984.81;5055045;28;1885;-70
2023/03/28 13:06:58;;;;;;;;;;;;;;;12.09;40.75;98990.78;5072967;28;831;-71
2023/03/28 13:09:25;;;;;;;;;;;;;;;11.65;40.80;99002.03;5072956;28;1398;-71
2023/03/28 13:11:52;;;;;;;;;;;;;;;11.28;40.90;98989.38;5073180;28;859;-70
2023/03/28 13:14:48;;;;;;;;;;;;;;;11.14;42.75;98987.69;5073455;28;887;-72
2023/03/28 13:17:18;;;;;;;;;;;;;;;10.89;41.96;98994.47;5037874;28;1126;-70
2023/03/28 13:19:46;;;;;;;;;;;;;;;10.85;42.78;98993.78;5072768;28;870;-72
2023/03/28 13:22:21;;;;;;;;;;;;;;;10.97;41.69;98987.63;5054945;28;1179;-70
2023/03/28 13:24:48;;;;;;;;;;;;;;;10.99;41.49;98989.97;5073130;28;815;-70
2023/03/28 13:27:35;;;;;;;;;;;;;;;10.16;42.32;99009.94;5073879;28;765;-70
2023/03/28 13:30:13;;;;;;;;;;;;;;;9.43;44.69;99011.38;5073172;28;848;-74
2023/03/28 13:32:43;;;;;;;;;;;;;;;9.17;45.35;99019.97;5072612;28;887;-69
2023/03/28 13:35:30;;;;;;;;;;;;;;;9.68;45.28;99024.84;5072462;28;865;-71
2023/03/28 13:38:11;;;;;;;;;;;;;;;10.19;43.00;99020.16;5072409;28;1199;-71
2023/03/28 13:40:49;;;;;;;;;;;;;;;10.55;42.84;99031.41;5072105;28;804;-69
2023/03/28 13:43:36;;;;;;;;;;;;;;;9.76;43.42;99034.59;5072262;28;1948;-72
2023/03/28 13:46:17;;;;;;;;;;;;;;;9.27;44.90;99043.09;5072325;28;796;-72
2023/03/28 13:49:16;;;;;;;;;;;;;;;9.19;44.74;99031.34;5072466;28;800;-71
2023/03/28 13:51:53;;;;;;;;;;;;;;;8.86;45.52;99046.69;5027864;28;1122;-71
2023/03/28 13:54:20;;;;;;;;;;;;;;;8.68;46.74;99046.84;5072273;28;823;-73
2023/03/28 13:56:51;;;;;;;;;;;;;;;8.63;46.85;99047.28;5072533;28;878;-73
2023/03/28 13:59:21;;;;;;;;;;;;;;;8.48;45.58;99054.91;5054120;28;1335;-71
2023/03/28 14:01:52;;;;;;;;;;;;;;;8.41;45.79;99037.66;5072072;28;862;-71
2023/03/28 14:04:24;;;;;;;;;;;;;;;8.24;46.04;99048.38;5071880;28;1889;-70
2023/03/28 14:06:51;;;;;;;;;;;;;;;8.16;45.84;99044.13;5072207;28;843;-68
2023/03/28 14:09:27;;;;;;;;;;;;;;;8.01;46.98;99056.41;5071770;28;1209;-72
2023/03/28 14:11:55;;;;;;;;;;;;;;;7.94;46.45;99054.50;5071874;28;871;-71
2023/03/28 14:14:29;;;;;;;;;;;;;;;7.90;47.76;99060.00;5053810;28;1172;-70
2023/03/28 14:17:00;;;;;;;;;;;;;;;7.95;47.66;99061.53;5054057;28;1227;-73
2023/03/28 14:19:33;;;;;;;;;;;;;;;7.96;47.39;99060.38;5071818;28;867;-73
2023/03/28 14:21:59;;;;;;;;;;;;;;;8.01;47.16;99065.44;5071817;28;898;-69
2023/03/28 14:24:26;;;;;;;;;;;;;;;7.91;47.37;99067.06;5071644;28;1910;-72
2023/03/28 14:27:04;;;;;;;;;;;;;;;8.04;47.75;99061.88;5071756;28;823;-73